Pagrindinis puslapis
METAR-TAF:

METAR-TAF

Oro uostai :

Ranongas, Tailandas

platuma: 09-59N, ilguma: 098-37E, Aukštis: 7 m

Dabartinis oras

Ataskaita buvo paskelbta 1 valandą ir 13 minutes, ne 09:00 UTC
Vėjas 17 kt iš Rytų/Pietryčių, svyruoja nuo Rytų/Šiaurės Rytų ir Pietryčių
Temperatūra 30°C
Drėgmė 59%
Slėgis 1008 hPa
Matomumas 10 km arba daugiau
Mažai debesys ne aukštis 2000 ft

METAR: VTSR 170900Z 11017KT 070V140 9999 FEW020 30/21 Q1008 NOSIG

Laikas: 17:13 (10:13 UTC)

Prognozė

Ataskaita buvo paskelbta 5 valandos ir 13 minutes, ne 05:00 UTC
Prognozė galioja nuo 17 metu 06 UTC su 18 metu 06 UTC
Vėjas 8 kt iš Rytų
Matomumas 10 km arba daugiau
Mažai debesys ne aukštis 2000 ft
Laikinai
nuo 17 metu 06 UTC su 17 metu 12 UTC
Vėjas 15 kt iš Rytų su gūsio iki 35 kt

TAF: VTSR 170500Z 1706/1806 10008KT 9999 FEW020 TEMPO 1706/1712 10015G35KT

Orai ataskaitas ir orų prognozės (METAR, TAF).

turimą stotys yra geltonos ir raudonos taškus žemėlapyje.

Perkelti pele per norėdami pamatyti stoties vardą.

Tada spustelėkite, norėdami matyti oro stebėjimo ir prognozės.

Norėdami pakeisti žemėlapį: spustelėkite ant žalios mygtukų su juodo kryžiaus žemyn,; žalią mygtuką su brūkšneliu, jei norite nutolinti; arba žalių rodyklių gretimoms žemėlapius.


METAR-TAF: